Archival Weather

Chicago O'Hare International

Chicago, Illinois (KORD)

Report from: Friday, September 23, 2022 4:51 PM CDT
Current time: Sunday, December 4, 2022 6:20 AM CST

Current weather
Weather history
Weather forecast

Temperature15.6°C (60.1°F)
Dew point4.4°C (39.9°F)
Winds 6 kts (3.1 m/s, 6.9 mph) South (180°)
Visibility10 mi. (16.1 km)
Clouds Few clouds 3,000 ft. (914 m)
Few clouds 12,000 ft. (3,658 m)
Ceiling: Broken clouds 14,000 ft. (4,267 m)
Broken clouds 18,000 ft. (5,486 m)
Overcast 25,000 ft. (7,620 m)
Altimeter30.12 in.Hg (1020 mB)
Relative humidity47 %
Density altitude-32 ft. (-10 m)
Sea-level pressure102.0 kPa (1020 mB, 30.12 in.Hg)
Remarks Automated weather observing station with precipitation discriminator
Pressure falling rapidly
Virga observed overhead
Flight conditions Visual Meteorological Conditions
Raw dataKORD 232151Z 18006KT 10SM FEW030 FEW120 BKN140 BKN180 OVC250 16/04 A3012 RMK AO2 PRESFR SLP199 VIRGA OHD T01560044
An error has occurred. This application may no longer respond until reloaded. Reload 🗙